CBBC

Bella Bella / Campbell Island Airport

Bella Bella, , Canada
TAF CBBC 211838Z 2119/2206 15005KT P6SM SCT050 TEMPO 2119/2202 BKN050 FM220200 14012G22KT P6SM SCT020 BKN040 TEMPO 2202/2206 5SM -SHRA BR OVC020 BECMG 2204/2206 16015G30KT RMK FCST BASED ON AUTO OBS. NXT FCST BY 220100Z
Issued Valid From Valid To
Jan-21 @ 18:38 UTC
(6 hours ago)
Jan-21 @ 19:00 UTC
(6 hours ago)
Jan-22 @ 06:00 UTC
(in 5 hours)
Jan-21 @ 19:00 to Jan-22 @ 02:00
TAF CBBC 211838Z 2119/2206 15005KT P6SM SCT050
Wind Visibility Clouds
150° at 5 knots Greater than 6 miles
  • Scattered at 5,000' AGL
Temporary Jan-21 @ 19:00 to Jan-22 @ 02:00
TEMPO 2119/2202 BKN050
Clouds
  • Broken at 5,000' AGL
From Jan-22 @ 02:00 to Jan-22 @ 04:00
FM220200 14012G22KT P6SM SCT020 BKN040
Wind Visibility Clouds
140° at 12 knots
 Gusting to 22 knots
Greater than 6 miles
  • Scattered at 2,000' AGL
  • Broken at 4,000' AGL
Temporary Jan-22 @ 02:00 to Jan-22 @ 06:00
TEMPO 2202/2206 5SM -SHRA BR OVC020
Visibility Clouds Conditions
5 miles
  • Overcast at 2,000' AGL
  • Light Rain
  • Mist
Becoming Jan-22 @ 04:00 to Jan-22 @ 06:00
BECMG 2204/2206 16015G30KT RMK FCST BASED ON AUTO OBS. NXT FCST BY 220100Z
Wind Visibility Clouds
160° at 15 knots
 Gusting to 30 knots
Greater than 6 miles
  • Scattered at 2,000' AGL
  • Broken at 4,000' AGL
TAF CBBC 211838Z 2119/2206 15005KT P6SM SCT050 TEMPO 2119/2202 BKN050 FM220200 14012G22KT P6SM SCT020 BKN040 TEMPO 2202/2206 5SM -SHRA BR OVC020 BECMG 2204/2206 16015G30KT RMK FCST BASED ON AUTO OBS. NXT FCST BY 220100Z
Issued Jan-21 @ 18:38 UTC
(6 hours ago)
Valid From Jan-21 @ 19:00 UTC
(6 hours ago)
Valid To Jan-22 @ 06:00 UTC
(in 5 hours)
Jan-21 @ 19:00 - Jan-22 @ 02:00
Wind Visibility
150° at 5 knots Greater than 6 miles
Clouds
  • Scattered at 5,000' AGL
Temporary Jan-21 @ 19:00 - Jan-22 @ 02:00
Clouds
  • Broken at 5,000' AGL
From Jan-22 @ 02:00 - Jan-22 @ 04:00
Wind Visibility
140° at 12 knots
 Gusting to 22 knots
Greater than 6 miles
Clouds
  • Scattered at 2,000' AGL
  • Broken at 4,000' AGL
Temporary Jan-22 @ 02:00 - Jan-22 @ 06:00
Clouds
  • Overcast at 2,000' AGL
Conditions
  • Light Rain
  • Mist
Becoming Jan-22 @ 04:00 - Jan-22 @ 06:00
Wind Visibility
160° at 15 knots
 Gusting to 30 knots
Greater than 6 miles
Clouds
  • Scattered at 2,000' AGL
  • Broken at 4,000' AGL